createdAt,value
2022-11-21T00:04:52.754Z,4.20
2022-11-21T00:09:57.777Z,3.72
2022-11-21T00:15:01.537Z,4.15
2022-11-21T00:20:05.860Z,5.35
2022-11-21T00:25:11.473Z,3.75
2022-11-21T00:30:15.990Z,3.58
2022-11-21T00:35:20.016Z,4.20
2022-11-21T00:40:25.058Z,4.43
2022-11-21T00:45:28.916Z,4.03
2022-11-21T00:50:32.588Z,4.00
2022-11-21T00:55:38.022Z,3.55
2022-11-21T01:00:41.851Z,4.85
2022-11-21T01:05:45.602Z,4.57
2022-11-21T01:10:50.592Z,3.90
2022-11-21T01:15:54.340Z,3.70
2022-11-21T01:21:00.781Z,5.12
2022-11-21T01:26:07.811Z,4.03
2022-11-21T01:31:13.447Z,4.65
2022-11-21T01:36:19.570Z,5.80
2022-11-21T01:41:26.838Z,4.00
2022-11-21T01:46:30.527Z,4.15
2022-11-21T01:51:37.889Z,3.92
2022-11-21T01:56:47.933Z,4.23
2022-11-21T02:01:54.963Z,3.85
2022-11-21T02:06:59.524Z,4.78
2022-11-21T02:12:09.545Z,4.12
2022-11-21T02:17:13.256Z,4.68
2022-11-21T02:22:28.987Z,4.57
2022-11-21T02:27:34.320Z,4.78
2022-11-21T02:32:39.894Z,5.20
2022-11-21T02:37:45.775Z,5.35
2022-11-21T02:43:00.542Z,4.72
2022-11-21T02:48:04.699Z,5.65
2022-11-21T02:53:10.698Z,6.30
2022-11-21T02:58:15.740Z,8.13
2022-11-21T03:03:19.439Z,9.68
2022-11-21T03:08:23.132Z,9.40
2022-11-21T03:13:28.160Z,9.82
2022-11-21T03:18:31.901Z,10.23
2022-11-21T03:23:35.726Z,9.18
2022-11-21T03:28:42.776Z,9.02
2022-11-21T03:33:46.517Z,9.02
2022-11-21T03:38:50.330Z,11.93
2022-11-21T03:43:55.364Z,10.50
2022-11-21T03:48:59.402Z,9.88
2022-11-21T03:54:03.704Z,9.25
2022-11-21T03:59:08.811Z,10.13
2022-11-21T04:04:12.581Z,10.65
2022-11-21T04:09:16.302Z,12.93
2022-11-21T04:14:21.285Z,14.85
2022-11-21T04:19:24.969Z,13.68
2022-11-21T04:24:28.989Z,13.85
2022-11-21T04:29:34.189Z,15.10
2022-11-21T04:34:39.682Z,15.15
2022-11-21T04:39:43.354Z,12.15
2022-11-21T04:44:48.398Z,9.90
2022-11-21T04:49:52.107Z,8.35
2022-11-21T04:54:55.816Z,9.13
2022-11-21T05:00:00.898Z,8.55
2022-11-21T05:05:04.881Z,9.70
2022-11-21T05:10:09.433Z,10.88
2022-11-21T05:15:14.477Z,11.02
2022-11-21T05:20:19.069Z,11.90
2022-11-21T05:25:22.925Z,12.27
2022-11-21T05:30:27.965Z,12.10
2022-11-21T05:35:31.795Z,12.93
2022-11-21T05:40:35.495Z,13.13
2022-11-21T05:45:40.520Z,14.25
2022-11-21T05:50:47.878Z,17.12
2022-11-21T05:55:51.563Z,16.53
2022-11-21T06:01:00.300Z,17.10
2022-11-21T06:06:07.418Z,14.60
2022-11-21T06:11:13.254Z,15.52
2022-11-21T06:16:20.450Z,15.38
2022-11-21T06:21:25.881Z,14.65
2022-11-21T06:26:29.731Z,14.38
2022-11-21T06:31:34.775Z,14.02
2022-11-21T06:36:38.422Z,16.10
2022-11-21T06:41:42.243Z,16.10
2022-11-21T06:46:51.278Z,16.87
2022-11-21T06:51:55.505Z,16.52
2022-11-21T06:56:59.368Z,17.67
2022-11-21T07:02:04.495Z,17.67
2022-11-21T07:07:08.482Z,16.37
2022-11-21T07:12:32.209Z,17.02
2022-11-21T07:17:37.282Z,15.80
2022-11-21T07:22:41.095Z,16.45
2022-11-21T07:27:44.766Z,16.17
2022-11-21T07:32:56.313Z,14.75
2022-11-21T07:38:00.306Z,13.43
2022-11-21T07:43:09.584Z,14.15
2022-11-21T07:48:16.129Z,14.90
2022-11-21T07:53:19.828Z,15.45
2022-11-21T07:58:23.643Z,13.38
2022-11-21T08:03:28.632Z,12.57
2022-11-21T08:08:32.882Z,13.00
2022-11-21T08:13:36.964Z,13.50
2022-11-21T08:18:42.084Z,11.05
2022-11-21T08:23:45.781Z,9.85
2022-11-21T08:28:49.493Z,10.43
2022-11-21T08:33:58.191Z,11.25
2022-11-21T08:39:02.152Z,10.73
2022-11-21T08:44:09.859Z,11.07
2022-11-21T08:49:18.792Z,9.07
2022-11-21T08:54:24.219Z,9.00
2022-11-21T08:59:28.042Z,9.73
2022-11-21T09:04:33.182Z,8.40
2022-11-21T09:09:36.880Z,8.27
2022-11-21T09:14:58.394Z,8.38
2022-11-21T09:20:03.468Z,7.45
2022-11-21T09:25:07.641Z,6.93
2022-11-21T09:30:12.443Z,7.45
2022-11-21T09:35:17.595Z,8.77
2022-11-21T09:40:21.566Z,6.55
2022-11-21T09:45:31.340Z,6.10
2022-11-21T09:50:39.055Z,5.78
2022-11-21T09:55:47.358Z,5.95
2022-11-21T10:00:52.928Z,5.15
2022-11-21T10:06:03.219Z,4.62
2022-11-21T10:11:20.312Z,4.57
2022-11-21T10:16:39.206Z,4.30
2022-11-21T10:22:24.322Z,4.47
2022-11-21T10:27:33.502Z,3.78
2022-11-21T10:32:40.236Z,3.95
2022-11-21T10:37:50.988Z,3.58
2022-11-21T10:43:21.315Z,3.35
2022-11-21T10:48:25.003Z,3.87
2022-11-21T10:53:48.055Z,4.15
2022-11-21T10:58:54.041Z,3.55
2022-11-21T11:04:40.610Z,3.75
2022-11-21T11:09:46.990Z,3.53
2022-11-21T11:14:53.548Z,3.35
2022-11-21T11:20:06.924Z,3.10
2022-11-21T11:25:11.962Z,2.95
2022-11-21T11:30:17.518Z,3.37
2022-11-21T11:35:24.183Z,2.90
2022-11-21T11:40:33.991Z,2.40
2022-11-21T11:46:11.536Z,3.22
2022-11-21T11:51:22.937Z,3.20
2022-11-21T11:56:30.874Z,3.60
2022-11-21T12:01:40.574Z,3.72
2022-11-21T12:08:06.000Z,3.20
2022-11-21T12:12:19.664Z,3.90
2022-11-21T12:17:36.334Z,2.25
2022-11-21T12:22:40.162Z,2.67
2022-11-21T12:27:50.301Z,2.40
2022-11-21T12:33:03.568Z,2.55
2022-11-21T12:38:27.117Z,2.47
2022-11-21T12:43:40.954Z,2.42
2022-11-21T12:49:13.407Z,3.12
2022-11-21T12:54:34.307Z,3.05
2022-11-21T12:59:49.548Z,4.85
2022-11-21T13:04:57.119Z,4.00
2022-11-21T13:10:04.115Z,9.43
2022-11-21T13:15:20.596Z,7.85
2022-11-21T13:20:32.815Z,4.47
2022-11-21T13:25:39.244Z,3.15
2022-11-21T13:30:49.666Z,3.78
2022-11-21T13:36:07.047Z,3.35
2022-11-21T13:41:28.466Z,4.07
2022-11-21T13:47:02.290Z,3.15
2022-11-21T13:52:09.602Z,2.70
2022-11-21T13:57:27.957Z,2.58
2022-11-21T14:03:21.020Z,3.28
2022-11-21T14:08:27.004Z,3.62
2022-11-21T14:13:33.963Z,3.10
2022-11-21T14:18:40.326Z,3.65
2022-11-21T14:23:45.387Z,3.78
2022-11-21T14:28:49.315Z,3.35
2022-11-21T14:33:58.871Z,3.78
2022-11-21T14:44:32.916Z,3.87
2022-11-21T14:49:38.052Z,3.92
2022-11-21T14:55:22.479Z,4.55
2022-11-21T15:06:01.739Z,4.75
2022-11-21T15:11:06.219Z,5.18
2022-11-21T15:16:10.079Z,5.03
2022-11-21T15:21:17.432Z,5.28
2022-11-21T15:26:30.625Z,5.00
2022-11-21T15:31:34.433Z,3.90
2022-11-21T15:36:39.490Z,3.42
2022-11-21T15:41:43.401Z,5.70
2022-11-21T15:46:47.588Z,4.60
2022-11-21T15:52:07.111Z,4.87
2022-11-21T15:57:11.640Z,4.37
2022-11-21T16:02:16.119Z,4.03
2022-11-21T16:07:21.231Z,3.95
2022-11-21T16:12:24.998Z,5.55
2022-11-21T16:17:28.724Z,4.60
2022-11-21T16:22:34.164Z,4.25
2022-11-21T16:27:37.923Z,6.00
2022-11-21T16:32:41.649Z,4.43
2022-11-21T16:37:47.271Z,5.20
2022-11-21T16:42:51.016Z,4.70
2022-11-21T16:47:54.708Z,4.70
2022-11-21T16:52:59.824Z,5.10
2022-11-21T16:58:03.617Z,5.05
2022-11-21T17:03:07.366Z,5.68
2022-11-21T17:08:12.448Z,7.53
2022-11-21T17:13:16.123Z,5.87
2022-11-21T17:18:19.921Z,5.82
2022-11-21T17:23:25.165Z,4.87
2022-11-21T17:28:29.645Z,4.03
2022-11-21T17:33:33.458Z,4.37
2022-11-21T17:38:39.843Z,4.50
2022-11-21T17:43:44.156Z,5.05
2022-11-21T17:48:54.638Z,4.60
2022-11-21T17:54:01.660Z,5.85
2022-11-21T17:59:06.484Z,4.78
2022-11-21T18:04:14.814Z,3.92
2022-11-21T18:09:20.539Z,4.93
2022-11-21T18:14:24.263Z,4.57
2022-11-21T18:19:28.116Z,5.22
2022-11-21T18:24:33.331Z,4.87
2022-11-21T18:29:37.452Z,5.35
2022-11-21T18:34:41.315Z,6.80
2022-11-21T18:39:46.323Z,5.00
2022-11-21T18:44:51.790Z,5.10
2022-11-21T18:49:55.539Z,5.82
2022-11-21T18:55:00.718Z,5.47
2022-11-21T19:00:06.140Z,5.65
2022-11-21T19:05:10.135Z,5.65
2022-11-21T19:10:41.365Z,5.12
2022-11-21T19:15:39.197Z,5.57
2022-11-21T19:20:43.061Z,4.78
2022-11-21T19:25:48.074Z,5.35
2022-11-21T19:30:51.894Z,4.93
2022-11-21T19:35:55.574Z,5.32
2022-11-21T19:41:17.117Z,5.93
2022-11-21T19:46:22.464Z,5.57
2022-11-21T19:51:30.093Z,5.55
2022-11-21T19:56:35.988Z,6.03
2022-11-21T20:01:40.264Z,8.18
2022-11-21T20:06:46.071Z,6.45
2022-11-21T20:11:52.761Z,12.10
2022-11-21T20:16:56.746Z,5.50
2022-11-21T20:22:00.516Z,5.05
2022-11-21T20:27:05.718Z,6.03
2022-11-21T20:32:09.589Z,5.40
2022-11-21T20:37:13.336Z,5.30
2022-11-21T20:42:18.525Z,5.15
2022-11-21T20:47:22.245Z,4.78
2022-11-21T20:57:50.987Z,5.35
2022-11-21T21:02:54.701Z,6.55
2022-11-21T21:07:58.466Z,6.10
2022-11-21T21:13:03.550Z,5.70
2022-11-21T21:18:07.271Z,5.85
2022-11-21T21:23:10.949Z,7.07
2022-11-21T21:28:16.024Z,6.70
2022-11-21T21:33:19.994Z,6.65
2022-11-21T21:38:23.699Z,6.68
2022-11-21T21:43:28.915Z,7.18
2022-11-21T21:48:32.724Z,10.15
2022-11-21T21:53:37.656Z,8.25
2022-11-21T21:58:44.155Z,6.65
2022-11-21T22:03:48.425Z,6.62
2022-11-21T22:08:52.376Z,7.40
2022-11-21T22:13:59.486Z,8.52
2022-11-21T22:19:03.270Z,7.40
2022-11-21T22:24:28.704Z,7.30
2022-11-21T22:29:33.943Z,7.50
2022-11-21T22:34:37.742Z,8.15
2022-11-21T22:39:41.483Z,8.93
2022-11-21T22:44:46.588Z,7.97
2022-11-21T22:49:50.426Z,7.78
2022-11-21T22:54:54.205Z,8.73
2022-11-21T22:59:59.270Z,7.72
2022-11-21T23:05:03.201Z,7.70
2022-11-21T23:10:08.120Z,7.18
2022-11-21T23:15:13.345Z,7.35
2022-11-21T23:20:17.728Z,6.68
2022-11-21T23:25:21.419Z,6.87
2022-11-21T23:30:26.567Z,7.55
2022-11-21T23:35:30.302Z,7.10
2022-11-21T23:40:34.018Z,5.80
2022-11-21T23:45:39.033Z,6.25
2022-11-21T23:50:42.722Z,6.22
2022-11-21T23:55:46.824Z,6.35
